sensor_id;sensor_type;location;lat;lon;timestamp;temperature;humidity
19330;DHT22;9799;48.214;16.388;2022-10-22T00:00:02;11.80;99.90
19330;DHT22;9799;48.214;16.388;2022-10-22T00:03:24;11.80;99.90
19330;DHT22;9799;48.214;16.388;2022-10-22T00:06:45;11.80;99.90
19330;DHT22;9799;48.214;16.388;2022-10-22T00:10:07;11.80;99.90
19330;DHT22;9799;48.214;16.388;2022-10-22T00:13:29;11.70;99.90
19330;DHT22;9799;48.214;16.388;2022-10-22T00:16:51;11.70;99.90
19330;DHT22;9799;48.214;16.388;2022-10-22T00:20:12;11.70;99.90
19330;DHT22;9799;48.214;16.388;2022-10-22T00:23:33;11.80;99.90
19330;DHT22;9799;48.214;16.388;2022-10-22T00:26:55;11.80;99.90
19330;DHT22;9799;48.214;16.388;2022-10-22T00:30:16;11.80;99.90
19330;DHT22;9799;48.214;16.388;2022-10-22T00:33:38;11.80;99.90
19330;DHT22;9799;48.214;16.388;2022-10-22T00:36:59;11.80;99.90
19330;DHT22;9799;48.214;16.388;2022-10-22T00:40:21;11.80;99.90
19330;DHT22;9799;48.214;16.388;2022-10-22T00:44:00;11.70;99.90
19330;DHT22;9799;48.214;16.388;2022-10-22T00:47:22;11.70;99.90
19330;DHT22;9799;48.214;16.388;2022-10-22T00:50:50;11.70;99.90
19330;DHT22;9799;48.214;16.388;2022-10-22T00:54:14;11.60;99.90
19330;DHT22;9799;48.214;16.388;2022-10-22T00:57:35;11.60;99.90
19330;DHT22;9799;48.214;16.388;2022-10-22T01:00:57;11.50;99.90
19330;DHT22;9799;48.214;16.388;2022-10-22T01:04:19;11.50;99.90
19330;DHT22;9799;48.214;16.388;2022-10-22T01:07:44;11.40;99.90
19330;DHT22;9799;48.214;16.388;2022-10-22T01:11:14;11.40;99.90
19330;DHT22;9799;48.214;16.388;2022-10-22T01:14:44;11.40;99.90
19330;DHT22;9799;48.214;16.388;2022-10-22T01:18:16;11.40;99.90
19330;DHT22;9799;48.214;16.388;2022-10-22T01:21:42;11.50;99.90
19330;DHT22;9799;48.214;16.388;2022-10-22T01:25:09;11.50;99.90
19330;DHT22;9799;48.214;16.388;2022-10-22T01:28:54;11.40;99.90
19330;DHT22;9799;48.214;16.388;2022-10-22T01:32:19;11.40;99.90
19330;DHT22;9799;48.214;16.388;2022-10-22T01:35:43;11.50;99.90
19330;DHT22;9799;48.214;16.388;2022-10-22T01:39:05;11.40;99.90
19330;DHT22;9799;48.214;16.388;2022-10-22T01:42:27;11.40;99.90
19330;DHT22;9799;48.214;16.388;2022-10-22T01:45:53;11.40;99.90
19330;DHT22;9799;48.214;16.388;2022-10-22T01:49:23;11.40;99.90
19330;DHT22;9799;48.214;16.388;2022-10-22T01:52:58;11.40;99.90
19330;DHT22;9799;48.214;16.388;2022-10-22T01:56:31;11.40;99.90
19330;DHT22;9799;48.214;16.388;2022-10-22T02:00:00;11.30;99.90
19330;DHT22;9799;48.214;16.388;2022-10-22T02:03:27;11.30;99.90
19330;DHT22;9799;48.214;16.388;2022-10-22T02:06:50;11.30;99.90
19330;DHT22;9799;48.214;16.388;2022-10-22T02:10:13;11.30;99.90
19330;DHT22;9799;48.214;16.388;2022-10-22T02:13:41;11.30;99.90
19330;DHT22;9799;48.214;16.388;2022-10-22T02:17:03;11.30;99.90
19330;DHT22;9799;48.214;16.388;2022-10-22T02:20:31;11.30;99.90
19330;DHT22;9799;48.214;16.388;2022-10-22T02:23:53;11.30;99.90
19330;DHT22;9799;48.214;16.388;2022-10-22T02:27:19;11.20;99.90
19330;DHT22;9799;48.214;16.388;2022-10-22T02:30:44;11.20;99.90
19330;DHT22;9799;48.214;16.388;2022-10-22T02:34:08;11.20;99.90
19330;DHT22;9799;48.214;16.388;2022-10-22T02:37:31;11.20;99.90
19330;DHT22;9799;48.214;16.388;2022-10-22T02:40:53;11.30;99.90
19330;DHT22;9799;48.214;16.388;2022-10-22T02:44:15;11.30;99.90
19330;DHT22;9799;48.214;16.388;2022-10-22T02:47:40;11.20;99.90
19330;DHT22;9799;48.214;16.388;2022-10-22T02:51:01;11.30;99.90
19330;DHT22;9799;48.214;16.388;2022-10-22T02:54:24;11.20;99.90
19330;DHT22;9799;48.214;16.388;2022-10-22T02:57:45;11.20;99.90
19330;DHT22;9799;48.214;16.388;2022-10-22T03:01:06;11.20;99.90
19330;DHT22;9799;48.214;16.388;2022-10-22T03:04:28;11.20;99.90
19330;DHT22;9799;48.214;16.388;2022-10-22T03:07:49;11.30;99.90
19330;DHT22;9799;48.214;16.388;2022-10-22T03:11:11;11.30;99.90
19330;DHT22;9799;48.214;16.388;2022-10-22T03:14:32;11.30;99.90
19330;DHT22;9799;48.214;16.388;2022-10-22T03:17:54;11.20;99.90
19330;DHT22;9799;48.214;16.388;2022-10-22T03:21:20;11.20;99.90
19330;DHT22;9799;48.214;16.388;2022-10-22T03:24:47;11.20;99.90
19330;DHT22;9799;48.214;16.388;2022-10-22T03:28:10;11.10;99.90
19330;DHT22;9799;48.214;16.388;2022-10-22T03:31:33;11.00;99.90
19330;DHT22;9799;48.214;16.388;2022-10-22T03:34:54;11.00;99.90
19330;DHT22;9799;48.214;16.388;2022-10-22T03:38:15;11.00;99.90
19330;DHT22;9799;48.214;16.388;2022-10-22T03:41:36;11.00;99.90
19330;DHT22;9799;48.214;16.388;2022-10-22T03:44:59;11.10;99.90
19330;DHT22;9799;48.214;16.388;2022-10-22T03:48:20;11.00;99.90
19330;DHT22;9799;48.214;16.388;2022-10-22T03:51:41;11.00;99.90
19330;DHT22;9799;48.214;16.388;2022-10-22T03:55:04;11.00;99.90
19330;DHT22;9799;48.214;16.388;2022-10-22T03:58:25;11.00;99.90
19330;DHT22;9799;48.214;16.388;2022-10-22T04:01:47;10.90;99.90
19330;DHT22;9799;48.214;16.388;2022-10-22T04:05:09;10.90;99.90
19330;DHT22;9799;48.214;16.388;2022-10-22T04:08:30;10.80;99.90
19330;DHT22;9799;48.214;16.388;2022-10-22T04:11:51;10.90;99.90
19330;DHT22;9799;48.214;16.388;2022-10-22T04:15:12;10.90;99.90
19330;DHT22;9799;48.214;16.388;2022-10-22T04:18:35;10.80;99.90
19330;DHT22;9799;48.214;16.388;2022-10-22T04:21:57;10.70;99.90
19330;DHT22;9799;48.214;16.388;2022-10-22T04:25:18;10.80;99.90
19330;DHT22;9799;48.214;16.388;2022-10-22T04:28:40;10.80;99.90
19330;DHT22;9799;48.214;16.388;2022-10-22T04:32:01;10.70;99.90
19330;DHT22;9799;48.214;16.388;2022-10-22T04:35:24;10.70;99.90
19330;DHT22;9799;48.214;16.388;2022-10-22T04:38:46;10.70;99.90
19330;DHT22;9799;48.214;16.388;2022-10-22T04:42:09;10.70;99.90
19330;DHT22;9799;48.214;16.388;2022-10-22T04:45:31;10.70;99.90
19330;DHT22;9799;48.214;16.388;2022-10-22T04:48:53;10.60;99.90
19330;DHT22;9799;48.214;16.388;2022-10-22T04:52:15;10.70;99.90
19330;DHT22;9799;48.214;16.388;2022-10-22T04:55:36;10.70;99.90
19330;DHT22;9799;48.214;16.388;2022-10-22T04:58:59;10.80;99.90
19330;DHT22;9799;48.214;16.388;2022-10-22T05:02:21;10.70;99.90
19330;DHT22;9799;48.214;16.388;2022-10-22T05:05:42;10.70;99.90
19330;DHT22;9799;48.214;16.388;2022-10-22T05:09:06;10.80;99.90
19330;DHT22;9799;48.214;16.388;2022-10-22T05:12:27;10.80;99.90
19330;DHT22;9799;48.214;16.388;2022-10-22T05:15:49;10.90;99.90
19330;DHT22;9799;48.214;16.388;2022-10-22T05:19:15;10.70;99.90
19330;DHT22;9799;48.214;16.388;2022-10-22T05:22:37;10.80;99.90
19330;DHT22;9799;48.214;16.388;2022-10-22T05:26:02;10.90;99.90
19330;DHT22;9799;48.214;16.388;2022-10-22T05:29:23;10.90;99.90
19330;DHT22;9799;48.214;16.388;2022-10-22T05:32:45;11.00;99.90
19330;DHT22;9799;48.214;16.388;2022-10-22T05:36:07;11.00;99.90
19330;DHT22;9799;48.214;16.388;2022-10-22T05:39:29;11.00;99.90
19330;DHT22;9799;48.214;16.388;2022-10-22T05:42:52;11.00;99.90
19330;DHT22;9799;48.214;16.388;2022-10-22T05:46:15;11.10;99.90
19330;DHT22;9799;48.214;16.388;2022-10-22T05:49:36;11.10;99.90
19330;DHT22;9799;48.214;16.388;2022-10-22T05:52:57;11.20;99.90
19330;DHT22;9799;48.214;16.388;2022-10-22T05:56:18;11.10;99.90
19330;DHT22;9799;48.214;16.388;2022-10-22T05:59:41;11.20;99.90
19330;DHT22;9799;48.214;16.388;2022-10-22T06:03:02;11.30;99.90
19330;DHT22;9799;48.214;16.388;2022-10-22T06:06:28;11.30;99.90
19330;DHT22;9799;48.214;16.388;2022-10-22T06:09:50;11.30;99.90
19330;DHT22;9799;48.214;16.388;2022-10-22T06:13:12;11.30;99.90
19330;DHT22;9799;48.214;16.388;2022-10-22T06:16:35;11.40;99.90
19330;DHT22;9799;48.214;16.388;2022-10-22T06:19:56;11.50;99.90
19330;DHT22;9799;48.214;16.388;2022-10-22T06:23:17;11.50;99.90
19330;DHT22;9799;48.214;16.388;2022-10-22T06:26:38;11.60;99.90
19330;DHT22;9799;48.214;16.388;2022-10-22T06:30:00;11.50;99.90
19330;DHT22;9799;48.214;16.388;2022-10-22T06:33:22;11.50;99.90
19330;DHT22;9799;48.214;16.388;2022-10-22T06:36:44;11.60;99.90
19330;DHT22;9799;48.214;16.388;2022-10-22T06:40:06;11.90;99.90
19330;DHT22;9799;48.214;16.388;2022-10-22T06:43:27;12.00;99.90
19330;DHT22;9799;48.214;16.388;2022-10-22T06:46:50;11.90;99.90
19330;DHT22;9799;48.214;16.388;2022-10-22T06:50:12;12.20;99.90
19330;DHT22;9799;48.214;16.388;2022-10-22T06:53:35;12.30;99.90
19330;DHT22;9799;48.214;16.388;2022-10-22T06:56:56;12.30;99.90
19330;DHT22;9799;48.214;16.388;2022-10-22T07:00:18;12.30;99.90
19330;DHT22;9799;48.214;16.388;2022-10-22T07:03:40;12.40;99.90
19330;DHT22;9799;48.214;16.388;2022-10-22T07:07:03;12.30;99.90
19330;DHT22;9799;48.214;16.388;2022-10-22T07:10:24;12.40;99.90
19330;DHT22;9799;48.214;16.388;2022-10-22T07:13:46;12.30;99.90
19330;DHT22;9799;48.214;16.388;2022-10-22T07:17:07;12.30;99.90
19330;DHT22;9799;48.214;16.388;2022-10-22T07:20:28;12.50;99.90
19330;DHT22;9799;48.214;16.388;2022-10-22T07:23:51;12.50;99.90
19330;DHT22;9799;48.214;16.388;2022-10-22T07:27:12;12.40;99.90
19330;DHT22;9799;48.214;16.388;2022-10-22T07:30:33;12.40;99.90
19330;DHT22;9799;48.214;16.388;2022-10-22T07:33:54;12.50;99.90
19330;DHT22;9799;48.214;16.388;2022-10-22T07:37:15;12.60;99.90
19330;DHT22;9799;48.214;16.388;2022-10-22T07:40:42;12.70;99.90
19330;DHT22;9799;48.214;16.388;2022-10-22T07:44:03;12.80;99.90
19330;DHT22;9799;48.214;16.388;2022-10-22T07:47:24;12.80;99.90
19330;DHT22;9799;48.214;16.388;2022-10-22T07:50:45;13.00;99.90
19330;DHT22;9799;48.214;16.388;2022-10-22T07:54:08;13.00;99.90
19330;DHT22;9799;48.214;16.388;2022-10-22T07:57:31;13.00;99.90
19330;DHT22;9799;48.214;16.388;2022-10-22T08:00:54;12.90;99.90
19330;DHT22;9799;48.214;16.388;2022-10-22T08:04:15;12.90;99.90
19330;DHT22;9799;48.214;16.388;2022-10-22T08:07:37;12.90;99.90
19330;DHT22;9799;48.214;16.388;2022-10-22T08:11:00;12.90;99.90
19330;DHT22;9799;48.214;16.388;2022-10-22T08:14:22;12.90;99.90
19330;DHT22;9799;48.214;16.388;2022-10-22T08:17:43;13.00;99.90
19330;DHT22;9799;48.214;16.388;2022-10-22T08:21:05;13.00;99.90
19330;DHT22;9799;48.214;16.388;2022-10-22T08:24:26;13.00;99.90
19330;DHT22;9799;48.214;16.388;2022-10-22T08:27:48;13.00;99.90
19330;DHT22;9799;48.214;16.388;2022-10-22T08:31:10;13.00;99.90
19330;DHT22;9799;48.214;16.388;2022-10-22T08:34:32;13.10;99.90
19330;DHT22;9799;48.214;16.388;2022-10-22T08:37:53;13.10;99.90
19330;DHT22;9799;48.214;16.388;2022-10-22T08:41:16;13.10;99.90
19330;DHT22;9799;48.214;16.388;2022-10-22T08:44:56;13.10;99.90
19330;DHT22;9799;48.214;16.388;2022-10-22T08:48:34;13.10;99.90
19330;DHT22;9799;48.214;16.388;2022-10-22T08:51:58;13.10;99.90
19330;DHT22;9799;48.214;16.388;2022-10-22T08:55:23;13.10;99.90
19330;DHT22;9799;48.214;16.388;2022-10-22T08:58:48;12.90;99.90
19330;DHT22;9799;48.214;16.388;2022-10-22T09:02:27;13.00;99.90
19330;DHT22;9799;48.214;16.388;2022-10-22T09:05:57;13.10;99.90
19330;DHT22;9799;48.214;16.388;2022-10-22T09:09:25;13.00;99.90
19330;DHT22;9799;48.214;16.388;2022-10-22T09:12:47;13.00;99.90
19330;DHT22;9799;48.214;16.388;2022-10-22T09:16:17;13.00;99.90
19330;DHT22;9799;48.214;16.388;2022-10-22T09:19:47;12.90;99.90
19330;DHT22;9799;48.214;16.388;2022-10-22T09:23:21;12.80;99.90
19330;DHT22;9799;48.214;16.388;2022-10-22T09:26:44;12.60;99.90
19330;DHT22;9799;48.214;16.388;2022-10-22T09:30:09;12.60;99.90
19330;DHT22;9799;48.214;16.388;2022-10-22T09:33:31;12.50;99.90
19330;DHT22;9799;48.214;16.388;2022-10-22T09:36:57;12.50;99.90
19330;DHT22;9799;48.214;16.388;2022-10-22T09:40:20;12.50;99.90
19330;DHT22;9799;48.214;16.388;2022-10-22T09:43:41;12.50;99.90
19330;DHT22;9799;48.214;16.388;2022-10-22T09:47:04;12.40;99.90
19330;DHT22;9799;48.214;16.388;2022-10-22T09:50:27;12.50;99.90
19330;DHT22;9799;48.214;16.388;2022-10-22T09:53:55;12.50;99.90
19330;DHT22;9799;48.214;16.388;2022-10-22T09:57:20;12.50;99.90
19330;DHT22;9799;48.214;16.388;2022-10-22T10:00:45;12.50;99.90
19330;DHT22;9799;48.214;16.388;2022-10-22T10:04:09;12.60;99.90
19330;DHT22;9799;48.214;16.388;2022-10-22T10:07:31;12.50;99.90
19330;DHT22;9799;48.214;16.388;2022-10-22T10:10:57;12.40;99.90
19330;DHT22;9799;48.214;16.388;2022-10-22T10:14:27;12.30;99.90
19330;DHT22;9799;48.214;16.388;2022-10-22T10:17:59;12.40;99.90
19330;DHT22;9799;48.214;16.388;2022-10-22T10:21:29;12.30;99.90
19330;DHT22;9799;48.214;16.388;2022-10-22T10:25:08;12.30;99.90
19330;DHT22;9799;48.214;16.388;2022-10-22T10:28:45;12.40;99.90
19330;DHT22;9799;48.214;16.388;2022-10-22T10:32:25;12.40;99.90
19330;DHT22;9799;48.214;16.388;2022-10-22T10:35:53;12.50;99.90
19330;DHT22;9799;48.214;16.388;2022-10-22T10:39:23;12.50;99.90
19330;DHT22;9799;48.214;16.388;2022-10-22T10:42:52;12.50;99.90
19330;DHT22;9799;48.214;16.388;2022-10-22T10:46:22;12.60;99.90
19330;DHT22;9799;48.214;16.388;2022-10-22T10:49:49;12.50;99.90
19330;DHT22;9799;48.214;16.388;2022-10-22T10:53:19;12.60;99.90
19330;DHT22;9799;48.214;16.388;2022-10-22T10:56:44;12.80;99.90
19330;DHT22;9799;48.214;16.388;2022-10-22T11:00:09;12.80;99.90
19330;DHT22;9799;48.214;16.388;2022-10-22T11:03:45;12.80;99.90
19330;DHT22;9799;48.214;16.388;2022-10-22T11:07:14;12.90;99.90
19330;DHT22;9799;48.214;16.388;2022-10-22T11:10:39;12.90;99.90
19330;DHT22;9799;48.214;16.388;2022-10-22T11:14:09;12.90;99.90
19330;DHT22;9799;48.214;16.388;2022-10-22T11:17:35;12.90;99.90
19330;DHT22;9799;48.214;16.388;2022-10-22T11:21:15;13.00;99.90
19330;DHT22;9799;48.214;16.388;2022-10-22T11:24:43;13.10;99.90
19330;DHT22;9799;48.214;16.388;2022-10-22T11:28:11;13.20;99.90
19330;DHT22;9799;48.214;16.388;2022-10-22T11:31:34;13.20;99.90
19330;DHT22;9799;48.214;16.388;2022-10-22T11:34:58;13.30;99.90
19330;DHT22;9799;48.214;16.388;2022-10-22T11:38:23;13.40;99.90
19330;DHT22;9799;48.214;16.388;2022-10-22T11:41:47;13.40;99.90
19330;DHT22;9799;48.214;16.388;2022-10-22T11:45:27;13.40;99.90
19330;DHT22;9799;48.214;16.388;2022-10-22T11:49:01;13.40;99.90
19330;DHT22;9799;48.214;16.388;2022-10-22T11:52:25;13.50;99.90
19330;DHT22;9799;48.214;16.388;2022-10-22T11:55:48;13.50;99.90
19330;DHT22;9799;48.214;16.388;2022-10-22T11:59:34;13.60;99.90
19330;DHT22;9799;48.214;16.388;2022-10-22T12:03:02;13.60;99.90
19330;DHT22;9799;48.214;16.388;2022-10-22T12:06:25;13.60;99.90
19330;DHT22;9799;48.214;16.388;2022-10-22T12:09:51;13.50;99.90
19330;DHT22;9799;48.214;16.388;2022-10-22T12:13:22;13.50;99.90
19330;DHT22;9799;48.214;16.388;2022-10-22T12:16:51;13.60;99.90
19330;DHT22;9799;48.214;16.388;2022-10-22T12:20:13;13.60;99.90
19330;DHT22;9799;48.214;16.388;2022-10-22T12:23:36;13.70;99.90
19330;DHT22;9799;48.214;16.388;2022-10-22T12:26:57;13.70;99.90
19330;DHT22;9799;48.214;16.388;2022-10-22T12:30:21;13.80;99.90
19330;DHT22;9799;48.214;16.388;2022-10-22T12:33:44;13.90;99.90
19330;DHT22;9799;48.214;16.388;2022-10-22T12:37:05;13.90;99.90
19330;DHT22;9799;48.214;16.388;2022-10-22T12:40:28;13.90;99.90
19330;DHT22;9799;48.214;16.388;2022-10-22T12:43:57;14.00;99.90
19330;DHT22;9799;48.214;16.388;2022-10-22T12:47:19;14.20;99.90
19330;DHT22;9799;48.214;16.388;2022-10-22T12:50:42;14.40;99.90
19330;DHT22;9799;48.214;16.388;2022-10-22T12:54:08;14.70;99.90
19330;DHT22;9799;48.214;16.388;2022-10-22T12:57:30;15.00;99.90
19330;DHT22;9799;48.214;16.388;2022-10-22T13:00:54;15.20;99.90
19330;DHT22;9799;48.214;16.388;2022-10-22T13:04:27;15.30;99.90
19330;DHT22;9799;48.214;16.388;2022-10-22T13:07:54;15.40;99.90
19330;DHT22;9799;48.214;16.388;2022-10-22T13:11:21;15.50;99.90
19330;DHT22;9799;48.214;16.388;2022-10-22T13:14:44;15.50;99.90
19330;DHT22;9799;48.214;16.388;2022-10-22T13:18:15;15.50;99.90
19330;DHT22;9799;48.214;16.388;2022-10-22T13:21:37;15.50;99.90
19330;DHT22;9799;48.214;16.388;2022-10-22T13:25:19;15.60;99.90
19330;DHT22;9799;48.214;16.388;2022-10-22T13:28:41;15.50;99.90
19330;DHT22;9799;48.214;16.388;2022-10-22T13:32:21;15.50;99.90
19330;DHT22;9799;48.214;16.388;2022-10-22T13:35:45;15.40;99.90
19330;DHT22;9799;48.214;16.388;2022-10-22T13:39:12;15.40;99.90
19330;DHT22;9799;48.214;16.388;2022-10-22T13:42:38;15.50;99.90
19330;DHT22;9799;48.214;16.388;2022-10-22T13:45:59;15.50;99.90
19330;DHT22;9799;48.214;16.388;2022-10-22T13:49:20;15.40;99.90
19330;DHT22;9799;48.214;16.388;2022-10-22T13:52:45;15.50;99.90
19330;DHT22;9799;48.214;16.388;2022-10-22T13:56:11;15.50;99.90
19330;DHT22;9799;48.214;16.388;2022-10-22T13:59:34;15.50;99.90
19330;DHT22;9799;48.214;16.388;2022-10-22T14:02:57;15.60;99.90
19330;DHT22;9799;48.214;16.388;2022-10-22T14:06:19;15.50;99.90
19330;DHT22;9799;48.214;16.388;2022-10-22T14:09:41;15.50;99.90
19330;DHT22;9799;48.214;16.388;2022-10-22T14:13:05;15.50;99.90
19330;DHT22;9799;48.214;16.388;2022-10-22T14:16:28;15.50;99.90
19330;DHT22;9799;48.214;16.388;2022-10-22T14:19:50;15.50;99.90
19330;DHT22;9799;48.214;16.388;2022-10-22T14:23:14;15.50;99.90
19330;DHT22;9799;48.214;16.388;2022-10-22T14:26:37;15.40;99.90
19330;DHT22;9799;48.214;16.388;2022-10-22T14:29:59;15.50;99.90
19330;DHT22;9799;48.214;16.388;2022-10-22T14:33:24;15.50;99.90
19330;DHT22;9799;48.214;16.388;2022-10-22T14:36:46;15.50;99.90
19330;DHT22;9799;48.214;16.388;2022-10-22T14:40:09;15.40;99.90
19330;DHT22;9799;48.214;16.388;2022-10-22T14:43:32;15.40;99.90
19330;DHT22;9799;48.214;16.388;2022-10-22T14:46:53;15.40;99.90
19330;DHT22;9799;48.214;16.388;2022-10-22T14:50:16;15.50;99.90
19330;DHT22;9799;48.214;16.388;2022-10-22T14:53:38;15.50;99.90
19330;DHT22;9799;48.214;16.388;2022-10-22T14:56:59;15.50;99.90
19330;DHT22;9799;48.214;16.388;2022-10-22T15:00:21;15.50;99.90
19330;DHT22;9799;48.214;16.388;2022-10-22T15:03:42;15.50;99.90
19330;DHT22;9799;48.214;16.388;2022-10-22T15:07:05;15.50;99.90
19330;DHT22;9799;48.214;16.388;2022-10-22T15:10:26;15.50;99.90
19330;DHT22;9799;48.214;16.388;2022-10-22T15:13:48;15.60;99.90
19330;DHT22;9799;48.214;16.388;2022-10-22T15:17:09;15.60;99.90
19330;DHT22;9799;48.214;16.388;2022-10-22T15:20:30;15.50;99.90
19330;DHT22;9799;48.214;16.388;2022-10-22T15:23:52;15.60;99.90
19330;DHT22;9799;48.214;16.388;2022-10-22T15:27:14;15.60;99.90
19330;DHT22;9799;48.214;16.388;2022-10-22T15:30:36;15.60;99.90
19330;DHT22;9799;48.214;16.388;2022-10-22T15:33:57;15.70;99.90
19330;DHT22;9799;48.214;16.388;2022-10-22T15:37:18;15.60;99.90
19330;DHT22;9799;48.214;16.388;2022-10-22T15:40:42;15.60;99.90
19330;DHT22;9799;48.214;16.388;2022-10-22T15:44:03;15.50;99.90
19330;DHT22;9799;48.214;16.388;2022-10-22T15:47:25;15.50;99.90
19330;DHT22;9799;48.214;16.388;2022-10-22T15:50:48;15.50;99.90
19330;DHT22;9799;48.214;16.388;2022-10-22T15:54:13;15.50;99.90
19330;DHT22;9799;48.214;16.388;2022-10-22T15:57:36;15.60;99.90
19330;DHT22;9799;48.214;16.388;2022-10-22T16:01:03;15.50;99.90
19330;DHT22;9799;48.214;16.388;2022-10-22T16:04:26;15.60;99.90
19330;DHT22;9799;48.214;16.388;2022-10-22T16:07:47;15.60;99.90
19330;DHT22;9799;48.214;16.388;2022-10-22T16:11:09;15.60;99.90
19330;DHT22;9799;48.214;16.388;2022-10-22T16:14:31;15.70;99.90
19330;DHT22;9799;48.214;16.388;2022-10-22T16:17:53;15.70;99.90
19330;DHT22;9799;48.214;16.388;2022-10-22T16:21:14;15.80;99.90
19330;DHT22;9799;48.214;16.388;2022-10-22T16:24:36;15.80;99.90
19330;DHT22;9799;48.214;16.388;2022-10-22T16:27:59;15.80;99.90
19330;DHT22;9799;48.214;16.388;2022-10-22T16:31:22;15.80;99.90
19330;DHT22;9799;48.214;16.388;2022-10-22T16:34:44;15.80;99.90
19330;DHT22;9799;48.214;16.388;2022-10-22T16:38:05;15.70;99.90
19330;DHT22;9799;48.214;16.388;2022-10-22T16:41:26;15.70;99.90
19330;DHT22;9799;48.214;16.388;2022-10-22T16:44:53;15.70;99.90
19330;DHT22;9799;48.214;16.388;2022-10-22T16:48:17;15.70;99.90
19330;DHT22;9799;48.214;16.388;2022-10-22T16:51:38;15.70;99.90
19330;DHT22;9799;48.214;16.388;2022-10-22T16:55:00;15.70;99.90
19330;DHT22;9799;48.214;16.388;2022-10-22T16:58:22;15.60;99.90
19330;DHT22;9799;48.214;16.388;2022-10-22T17:01:44;15.70;99.90
19330;DHT22;9799;48.214;16.388;2022-10-22T17:05:13;15.70;99.90
19330;DHT22;9799;48.214;16.388;2022-10-22T17:08:35;15.70;99.90
19330;DHT22;9799;48.214;16.388;2022-10-22T17:12:02;15.60;99.90
19330;DHT22;9799;48.214;16.388;2022-10-22T17:15:24;15.60;99.90
19330;DHT22;9799;48.214;16.388;2022-10-22T17:18:46;15.60;99.90
19330;DHT22;9799;48.214;16.388;2022-10-22T17:22:10;15.60;99.90
19330;DHT22;9799;48.214;16.388;2022-10-22T17:25:35;15.60;99.90
19330;DHT22;9799;48.214;16.388;2022-10-22T17:28:59;15.60;99.90
19330;DHT22;9799;48.214;16.388;2022-10-22T17:32:20;15.70;99.90
19330;DHT22;9799;48.214;16.388;2022-10-22T17:35:42;15.70;99.90
19330;DHT22;9799;48.214;16.388;2022-10-22T17:39:07;15.60;99.90
19330;DHT22;9799;48.214;16.388;2022-10-22T17:42:32;15.60;99.90
19330;DHT22;9799;48.214;16.388;2022-10-22T17:46:02;15.60;99.90
19330;DHT22;9799;48.214;16.388;2022-10-22T17:49:25;15.60;99.90
19330;DHT22;9799;48.214;16.388;2022-10-22T17:52:47;15.60;99.90
19330;DHT22;9799;48.214;16.388;2022-10-22T17:56:13;15.50;99.90
19330;DHT22;9799;48.214;16.388;2022-10-22T17:59:35;15.60;99.90
19330;DHT22;9799;48.214;16.388;2022-10-22T18:02:58;15.60;99.90
19330;DHT22;9799;48.214;16.388;2022-10-22T18:06:20;15.60;99.90
19330;DHT22;9799;48.214;16.388;2022-10-22T18:09:42;15.60;99.90
19330;DHT22;9799;48.214;16.388;2022-10-22T18:13:05;15.50;99.90
19330;DHT22;9799;48.214;16.388;2022-10-22T18:16:27;15.50;99.90
19330;DHT22;9799;48.214;16.388;2022-10-22T18:19:50;15.50;99.90
19330;DHT22;9799;48.214;16.388;2022-10-22T18:23:12;15.50;99.90
19330;DHT22;9799;48.214;16.388;2022-10-22T18:26:36;15.50;99.90
19330;DHT22;9799;48.214;16.388;2022-10-22T18:29:59;15.50;99.90
19330;DHT22;9799;48.214;16.388;2022-10-22T18:33:22;15.50;99.90
19330;DHT22;9799;48.214;16.388;2022-10-22T18:36:44;15.50;99.90
19330;DHT22;9799;48.214;16.388;2022-10-22T18:40:07;15.50;99.90
19330;DHT22;9799;48.214;16.388;2022-10-22T18:43:29;15.50;99.90
19330;DHT22;9799;48.214;16.388;2022-10-22T18:46:53;15.50;99.90
19330;DHT22;9799;48.214;16.388;2022-10-22T18:50:15;15.50;99.90
19330;DHT22;9799;48.214;16.388;2022-10-22T18:53:37;15.40;99.90
19330;DHT22;9799;48.214;16.388;2022-10-22T18:56:59;15.50;99.90
19330;DHT22;9799;48.214;16.388;2022-10-22T19:00:22;15.40;99.90
19330;DHT22;9799;48.214;16.388;2022-10-22T19:03:50;15.40;99.90
19330;DHT22;9799;48.214;16.388;2022-10-22T19:07:12;15.40;99.90
19330;DHT22;9799;48.214;16.388;2022-10-22T19:10:34;15.30;99.90
19330;DHT22;9799;48.214;16.388;2022-10-22T19:13:57;15.30;99.90
19330;DHT22;9799;48.214;16.388;2022-10-22T19:17:18;15.30;99.90
19330;DHT22;9799;48.214;16.388;2022-10-22T19:20:41;15.30;99.90
19330;DHT22;9799;48.214;16.388;2022-10-22T19:24:04;15.30;99.90
19330;DHT22;9799;48.214;16.388;2022-10-22T19:27:26;15.30;99.90
19330;DHT22;9799;48.214;16.388;2022-10-22T19:30:48;15.30;99.90
19330;DHT22;9799;48.214;16.388;2022-10-22T19:34:10;15.30;99.90
19330;DHT22;9799;48.214;16.388;2022-10-22T19:37:35;15.40;99.90
19330;DHT22;9799;48.214;16.388;2022-10-22T19:40:57;15.30;99.90
19330;DHT22;9799;48.214;16.388;2022-10-22T19:44:19;15.30;99.90
19330;DHT22;9799;48.214;16.388;2022-10-22T19:47:42;15.30;99.90
19330;DHT22;9799;48.214;16.388;2022-10-22T19:51:05;15.30;99.90
19330;DHT22;9799;48.214;16.388;2022-10-22T19:54:29;15.30;99.90
19330;DHT22;9799;48.214;16.388;2022-10-22T19:57:51;15.40;99.90
19330;DHT22;9799;48.214;16.388;2022-10-22T20:01:15;15.40;99.90
19330;DHT22;9799;48.214;16.388;2022-10-22T20:04:37;15.40;99.90
19330;DHT22;9799;48.214;16.388;2022-10-22T20:07:59;15.30;99.90
19330;DHT22;9799;48.214;16.388;2022-10-22T20:11:24;15.30;99.90
19330;DHT22;9799;48.214;16.388;2022-10-22T20:14:46;15.30;99.90
19330;DHT22;9799;48.214;16.388;2022-10-22T20:18:07;15.30;99.90
19330;DHT22;9799;48.214;16.388;2022-10-22T20:21:30;15.30;99.90
19330;DHT22;9799;48.214;16.388;2022-10-22T20:24:51;15.30;99.90
19330;DHT22;9799;48.214;16.388;2022-10-22T20:28:14;15.30;99.90
19330;DHT22;9799;48.214;16.388;2022-10-22T20:31:38;15.30;99.90
19330;DHT22;9799;48.214;16.388;2022-10-22T20:35:00;15.20;99.90
19330;DHT22;9799;48.214;16.388;2022-10-22T20:38:21;15.30;99.90
19330;DHT22;9799;48.214;16.388;2022-10-22T20:41:43;15.30;99.90
19330;DHT22;9799;48.214;16.388;2022-10-22T20:45:10;15.30;99.90
19330;DHT22;9799;48.214;16.388;2022-10-22T20:48:32;15.30;99.90
19330;DHT22;9799;48.214;16.388;2022-10-22T20:51:53;15.30;99.90
19330;DHT22;9799;48.214;16.388;2022-10-22T20:55:15;15.20;99.90
19330;DHT22;9799;48.214;16.388;2022-10-22T20:58:36;15.20;99.90
19330;DHT22;9799;48.214;16.388;2022-10-22T21:01:59;15.20;99.90
19330;DHT22;9799;48.214;16.388;2022-10-22T21:05:21;15.20;99.90
19330;DHT22;9799;48.214;16.388;2022-10-22T21:08:42;15.20;99.90
19330;DHT22;9799;48.214;16.388;2022-10-22T21:12:04;15.20;99.90
19330;DHT22;9799;48.214;16.388;2022-10-22T21:15:26;15.20;99.90
19330;DHT22;9799;48.214;16.388;2022-10-22T21:18:49;15.20;99.90
19330;DHT22;9799;48.214;16.388;2022-10-22T21:22:10;15.20;99.90
19330;DHT22;9799;48.214;16.388;2022-10-22T21:25:31;15.20;99.90